Skip to Main Content
SEARCH:
Location Air RH Dwp Precip Type Wind Speed Wind Gust Direction Pavement Temperature Date/Time
Hatem Bridge US 40 E/B 77 81 71 None - - No Data Available 91 - 91 7/27/2017 2:44:00 PM
I-270 at I-370 81 71 71 None Calm Calm N 101 - 98 7/27/2017 2:40:00 PM
I-270 at MD-109 84 75 75 None Calm Calm N 100 - 101 7/27/2017 2:40:00 PM
I-495 at American Legion Bridge 86 70 75 None 4 mph 8 mph E 105 - 106 7/27/2017 2:40:00 PM
I-68 at MD-219 74 75 66 None 9 mph 16 mph W 103 - 103 7/27/2017 2:40:00 PM
I-68 at Savage Mt 78 65 66 None Calm 10 mph SW 106 - 109 7/27/2017 2:40:00 PM
I-68 at Sideling Hill 80 82 74 None 5 mph 8 mph S 104 - 106 7/27/2017 2:40:00 PM
I-68 at WV Line 77 71 67 None Calm 6 mph SW 96 - 99 7/27/2017 2:40:00 PM
I-695 at I-83 82 69 71 None Calm 7 mph SE 94 - 97 7/27/2017 2:40:00 PM
I-70 at Fred-Wash Co. - - - No Data Available - - No Data Available -
I-70 at I-695 83 66 71 None 5 mph 9 mph SW 103 - 99 7/27/2017 2:40:00 PM
I-70 at I-81 82 73 73 None 5 mph 10 mph S - 7/27/2017 2:40:00 PM
I-70 at MD-27 81 77 74 None Calm 6 mph W 101 - 99 7/27/2017 2:40:00 PM
I-70 at MD-32 80 72 71 None Calm 4 mph SW 102 - 94 7/27/2017 2:40:00 PM
I-83 at MD-137 80 81 73 None Calm 4 mph E 95 - 95 7/27/2017 2:40:00 PM
I-95 at I-695 NE 80 77 72 None Calm 6 mph SE 92 - 96 7/27/2017 2:44:00 PM
I-95 at Patuxent River 83 70 73 None 4 mph 10 mph SW 97 - 99 7/27/2017 2:40:00 PM
I-95 at Tydings Bridge 79 78 71 None Calm 11 mph NW 91 - 92 7/27/2017 2:40:00 PM
I-95/495 at I-295 88 66 75 None Calm 6 mph S 92 - 99 7/27/2017 2:40:00 PM
I-97 at MD-100 84 67 72 None 7 mph 12 mph S 101 - 97 7/27/2017 2:40:00 PM
I-97 at MD-32 82 73 73 None 6 mph 10 mph N 102 - 98 7/27/2017 2:40:00 PM
MD 20 at MD 21 81 77 73 None 5 mph 10 mph SW 110 - 110 7/27/2017 2:40:00 PM
MD 231 at Patuxent River 80 80 74 None 4 mph 6 mph S 101 - 95 7/27/2017 2:40:00 PM
MD 260 at Cox Rd 81 77 73 None 4 mph 8 mph W 104 - 104 7/27/2017 2:40:00 PM
MD-135 at Salt Dome 76 76 68 None 4 mph 11 mph W 110 - 110 7/27/2017 2:40:00 PM
MD-140 at MD-97 79 78 72 None Calm 7 mph SW 96 - 96 7/27/2017 2:40:00 PM
MD-200 EB at Bonifant Rd 81 73 72 None Calm 7 mph N 103 - 107 7/27/2017 2:44:00 PM
MD-200 WB at Muncaster Mill Rd 82 68 71 None Calm 6 mph SW 102 - 104 7/27/2017 2:44:00 PM
MD-213 at Sassafras River 82 77 74 None 4 mph 9 mph S 101 - 101 7/27/2017 2:40:00 PM
MD-24 at Rock St Park 77 95 76 None Calm Calm N 88 - 88 7/27/2017 2:40:00 PM
MD-30 at PA Line 78 85 73 None Calm 7 mph S 102 - 102 7/27/2017 2:40:00 PM
MD-301 at MD-305 82 70 72 None 6 mph 8 mph S 107 - 112 7/27/2017 2:40:00 PM
MD-33 at Knapps Narrows Drawbridge 80 76 72 None 5 mph 13 mph SE 108 - 108 7/27/2017 2:40:00 PM
MD-344 at MD-224 82 77 75 None Calm Calm S - 7/27/2017 2:40:00 PM
MD-4 at Patuxent River 86 74 76 None - - No Data Available 102 - 107 7/27/2017 2:40:00 PM
MD-404 at Choptank River 82 71 72 None 4 mph 10 mph S 100 - 104 7/27/2017 2:40:00 PM
MD-43 at MD-150 80 81 74 None 7 mph 12 mph S 100 - 103 7/27/2017 2:40:00 PM
MD-51 at Oldtown Salt Dome 83 67 71 None Calm 8 mph E 109 - 109 7/27/2017 2:40:00 PM
MD-64 at MD-418 80 77 72 None Calm 8 mph SW 116 - 117 7/27/2017 2:40:00 PM
US-1 at Baltimore / Harford Co. Line 80 77 72 None Calm 9 mph SW 100 - 99 7/27/2017 2:40:00 PM
US-1 at Conowingo Dam 79 83 74 None Calm 7 mph SE 93 - 93 7/27/2017 2:40:00 PM
US-13 at US-113 83 61 68 None 9 mph 16 mph S 122 - 124 7/27/2017 2:40:00 PM
US-13 at US-50 - - - No Data Available - - No Data Available -
US-15 at MD-140 82 70 72 None Calm 8 mph S 110 - 112 7/27/2017 2:40:00 PM
US-301 at MD-5 82 76 74 None 4 mph 7 mph S 103 - 99 7/27/2017 2:40:00 PM
US-301 at Potomac 85 76 76 None 7 mph 11 mph S 95 - 99 7/27/2017 2:40:00 PM
US-301 on HWN Bridge 82 72 72 None 8 mph 10 mph S 93 - 93 7/27/2017 2:44:00 PM
US-340 at MD-180 80 75 71 None Calm 6 mph SE 102 - 105 7/27/2017 2:40:00 PM
US-50 at Choptank 81 83 75 None Calm 10 mph SE 92 - 96 7/27/2017 2:40:00 PM
US-50 at I-95 84 73 74 None 4 mph 10 mph W 103 - 98 7/27/2017 2:40:00 PM
US-50 at MD-2 82 82 76 None 5 mph 12 mph S 102 - 106 7/27/2017 2:40:00 PM
US-50 at MD-331 81 72 71 None 6 mph 10 mph S 101 - 97 7/27/2017 2:40:00 PM
US-50 at OC Drawbridge 77 80 71 None 4 mph 15 mph SW 105 - 105 7/27/2017 2:40:00 PM
US-50 at Table Rock Rd 75 79 69 None 4 mph 10 mph NW 114 - 114 7/27/2017 2:40:00 PM
US-50 Kent Narrow Bridge 82 78 75 None 7 mph 12 mph S 100 - 104 7/27/2017 2:40:00 PM
WPL Pier 31 - - - No Data Available - - No Data Available - 7/27/2017 2:44:00 PM
Location Air RH Dwp Precip Type Wind Speed Wind Gust Direction Pavement Temperature Date/Time